Time;durP1;ratioP1;P1;durP2;ratioP2;P2;SDS_P1;SDS_P2;PMS_P1;PMS_P2;Temp;Humidity;BMP_temperature;BMP_pressure;BME280_temperature;BME280_humidity;BME280_pressure;Samples;Min_cycle;Max_cycle;Signal;HPM_P1;HPM_P2
2021/04/14 00:01:45;;;;;;;2.80;1.88;;;5.10;99.90;;;;;;4158475;28;20100;-66
2021/04/14 00:03:45;;;;;;;6.65;1.70;;;5.10;99.90;;;;;;4159951;28;20033;-66
2021/04/14 00:05:47;;;;;;;2.90;1.65;;;5.00;99.90;;;;;;4161133;28;20033;-67
2021/04/14 00:07:48;;;;;;;3.42;2.10;;;5.00;99.90;;;;;;4160863;28;20033;-67
2021/04/14 00:09:49;;;;;;;2.17;1.52;;;5.10;99.90;;;;;;4160680;28;20774;-67
2021/04/14 00:11:50;;;;;;;3.85;1.70;;;5.00;99.90;;;;;;4177666;28;20067;-67
2021/04/14 00:13:51;;;;;;;3.08;1.50;;;5.00;99.90;;;;;;4161186;28;20146;-67
2021/04/14 00:15:55;;;;;;;2.60;1.63;;;5.00;99.90;;;;;;4159600;28;20490;-66
2021/04/14 00:17:56;;;;;;;4.80;1.77;;;5.00;99.90;;;;;;4157855;28;20124;-66
2021/04/14 00:19:57;;;;;;;4.78;1.70;;;5.00;99.90;;;;;;4191331;28;20068;-66
2021/04/14 00:21:58;;;;;;;3.88;1.98;;;4.90;99.90;;;;;;4163785;28;20441;-66
2021/04/14 00:23:59;;;;;;;3.25;1.90;;;4.90;99.90;;;;;;4160447;28;20565;-67
2021/04/14 00:26:00;;;;;;;3.78;2.00;;;4.90;99.90;;;;;;4158586;28;20037;-66
2021/04/14 00:28:01;;;;;;;2.55;1.75;;;4.90;99.90;;;;;;4188629;28;20051;-66
2021/04/14 00:30:05;;;;;;;5.85;1.85;;;4.90;99.90;;;;;;4161658;28;20084;-66
2021/04/14 00:32:06;;;;;;;3.53;1.95;;;4.90;99.90;;;;;;4180902;28;20056;-66
2021/04/14 00:34:13;;;;;;;3.00;2.00;;;4.90;99.90;;;;;;4173434;28;20359;-66
2021/04/14 00:36:14;;;;;;;5.82;1.95;;;4.80;99.90;;;;;;4158470;28;20025;-66
2021/04/14 00:38:17;;;;;;;3.53;1.77;;;4.80;99.90;;;;;;4162099;28;20053;-67
2021/04/14 00:40:21;;;;;;;;;;;4.80;99.90;;;;;;4156201;28;20516;-66
2021/04/14 00:42:21;;;;;;;2.60;1.73;;;4.80;99.90;;;;;;4160490;28;19996;-66
2021/04/14 00:44:22;;;;;;;3.22;1.92;;;4.70;99.90;;;;;;4185221;28;20095;-67
2021/04/14 00:46:24;;;;;;;4.28;2.00;;;4.80;99.90;;;;;;4159953;28;20041;-66
2021/04/14 00:48:25;;;;;;;6.05;2.28;;;4.70;99.90;;;;;;4159238;28;20413;-66
2021/04/14 00:50:27;;;;;;;4.13;2.38;;;4.70;99.90;;;;;;4156236;28;20045;-66
2021/04/14 00:52:27;;;;;;;4.45;2.25;;;4.70;99.90;;;;;;4161241;28;20037;-66
2021/04/14 00:54:28;;;;;;;5.72;2.20;;;4.70;99.90;;;;;;4162283;28;20051;-66
2021/04/14 00:56:29;;;;;;;4.00;1.70;;;4.70;99.90;;;;;;4159679;28;20037;-66
2021/04/14 00:58:31;;;;;;;3.65;2.10;;;4.70;99.90;;;;;;4159994;28;20041;-66
2021/04/14 01:00:33;;;;;;;5.40;1.93;;;4.60;99.90;;;;;;4160823;28;20037;-67
2021/04/14 01:02:34;;;;;;;3.17;2.03;;;4.60;99.90;;;;;;4161459;28;20330;-66
2021/04/14 01:04:36;;;;;;;2.35;1.60;;;4.60;99.90;;;;;;4156761;28;20080;-67
2021/04/14 01:06:37;;;;;;;4.00;2.15;;;4.60;99.90;;;;;;4161084;28;20130;-67
2021/04/14 01:08:37;;;;;;;3.90;2.30;;;4.60;99.90;;;;;;4159651;28;20616;-67
2021/04/14 01:10:38;;;;;;;4.28;1.90;;;4.50;99.90;;;;;;4159676;28;20041;-66
2021/04/14 01:12:39;;;;;;;5.00;2.35;;;4.50;99.90;;;;;;4157917;28;20122;-66
2021/04/14 01:14:39;;;;;;;3.35;2.03;;;4.50;99.90;;;;;;4160889;28;20065;-66
2021/04/14 01:16:40;;;;;;;4.18;2.25;;;4.50;99.90;;;;;;4160763;28;20037;-66
2021/04/14 01:18:41;;;;;;;7.43;2.03;;;4.50;99.90;;;;;;4161173;28;20037;-67
2021/04/14 01:20:42;;;;;;;6.53;2.08;;;4.50;99.90;;;;;;4181904;28;20060;-66
2021/04/14 01:22:43;;;;;;;3.88;2.20;;;4.50;99.90;;;;;;4161289;28;20119;-67
2021/04/14 01:24:44;;;;;;;4.03;2.40;;;4.50;99.90;;;;;;4156860;28;20486;-66
2021/04/14 01:26:45;;;;;;;5.38;2.90;;;4.50;99.90;;;;;;4158220;28;20061;-67
2021/04/14 01:28:49;;;;;;;6.25;3.42;;;4.50;99.90;;;;;;4157420;28;20041;-67
2021/04/14 01:30:52;;;;;;;6.65;4.18;;;4.50;99.90;;;;;;4161286;28;20123;-66
2021/04/14 01:32:52;;;;;;;5.80;3.53;;;4.50;99.90;;;;;;4157080;28;20041;-66
2021/04/14 01:34:53;;;;;;;7.07;3.47;;;4.40;99.90;;;;;;4190022;28;20521;-66
2021/04/14 01:36:54;;;;;;;6.15;3.45;;;4.40;99.90;;;;;;4158080;28;20398;-66
2021/04/14 01:38:54;;;;;;;4.65;2.70;;;4.40;99.90;;;;;;4163722;28;20063;-66
2021/04/14 01:40:56;;;;;;;5.82;2.67;;;4.40;99.90;;;;;;4159091;28;20528;-66
2021/04/14 01:42:58;;;;;;;5.25;2.90;;;4.40;99.90;;;;;;4158139;28;21071;-66
2021/04/14 01:44:58;;;;;;;4.45;2.58;;;4.40;99.90;;;;;;4161243;28;20124;-66
2021/04/14 01:46:59;;;;;;;4.47;2.53;;;4.40;99.90;;;;;;4163058;28;20033;-66
2021/04/14 01:48:59;;;;;;;3.75;2.35;;;4.40;99.90;;;;;;4189868;28;20600;-66
2021/04/14 01:51:00;;;;;;;5.95;2.55;;;4.40;99.90;;;;;;4151468;28;20092;-66
2021/04/14 01:53:04;;;;;;;5.15;2.50;;;4.40;99.90;;;;;;4160346;28;20501;-66
2021/04/14 01:55:07;;;;;;;4.28;2.50;;;4.40;99.90;;;;;;4174641;28;20068;-67
2021/04/14 01:57:08;;;;;;;3.15;1.92;;;4.40;99.90;;;;;;4156909;28;20045;-66
2021/04/14 01:59:10;;;;;;;3.33;2.28;;;4.40;99.90;;;;;;4160169;28;20029;-66
2021/04/14 02:01:11;;;;;;;3.83;2.40;;;4.30;99.90;;;;;;4154566;28;20036;-66
2021/04/14 02:03:13;;;;;;;3.28;2.20;;;4.30;99.90;;;;;;4186884;28;20115;-66
2021/04/14 02:05:15;;;;;;;2.83;2.08;;;4.30;99.90;;;;;;4162256;28;20107;-66
2021/04/14 02:07:16;;;;;;;4.05;2.65;;;4.30;99.90;;;;;;4158181;28;20033;-66
2021/04/14 02:09:18;;;;;;;3.70;2.25;;;4.30;99.90;;;;;;4159446;28;20482;-66
2021/04/14 02:11:18;;;;;;;4.20;2.30;;;4.30;99.90;;;;;;4187307;28;20040;-66
2021/04/14 02:13:25;;;;;;;6.15;2.90;;;4.30;99.90;;;;;;4160829;28;20049;-67
2021/04/14 02:15:29;;;;;;;4.90;2.40;;;4.30;99.90;;;;;;4158651;28;20034;-66
2021/04/14 02:17:30;;;;;;;3.50;2.22;;;4.30;99.90;;;;;;4161397;28;20037;-67
2021/04/14 02:19:30;;;;;;;3.67;2.25;;;4.30;99.90;;;;;;4158507;28;20116;-66
2021/04/14 02:21:31;;;;;;;3.92;2.20;;;4.20;99.90;;;;;;4157071;28;20033;-66
2021/04/14 02:23:35;;;;;;;5.45;2.10;;;4.20;99.90;;;;;;4159763;28;20462;-67
2021/04/14 02:25:35;;;;;;;3.95;2.40;;;4.20;99.90;;;;;;4159166;28;20064;-66
2021/04/14 02:27:36;;;;;;;4.95;2.40;;;4.20;99.90;;;;;;4160364;28;20037;-66
2021/04/14 02:29:36;;;;;;;6.50;2.50;;;4.20;99.90;;;;;;4162037;28;20056;-66
2021/04/14 02:31:37;;;;;;;3.90;2.55;;;4.20;99.90;;;;;;4156791;28;20114;-66
2021/04/14 02:33:38;;;;;;;3.75;2.15;;;4.20;99.90;;;;;;4159335;28;20816;-66
2021/04/14 02:35:39;;;;;;;4.85;2.70;;;4.10;99.90;;;;;;4165316;28;20243;-66
2021/04/14 02:37:40;;;;;;;4.00;2.60;;;4.10;99.90;;;;;;4162819;28;20371;-67
2021/04/14 02:39:40;;;;;;;4.25;2.25;;;4.10;99.90;;;;;;4193529;28;20047;-66
2021/04/14 02:41:41;;;;;;;4.78;2.83;;;4.10;99.90;;;;;;4164400;28;20033;-66
2021/04/14 02:43:42;;;;;;;3.75;2.60;;;4.10;99.90;;;;;;4163941;28;20036;-67
2021/04/14 02:45:42;;;;;;;4.72;2.50;;;4.10;99.90;;;;;;4164528;28;20041;-66
2021/04/14 02:47:43;;;;;;;4.43;2.17;;;4.10;99.90;;;;;;4164284;28;20571;-66
2021/04/14 02:49:43;;;;;;;5.78;2.55;;;4.10;99.90;;;;;;4167100;28;20051;-66
2021/04/14 02:51:44;;;;;;;5.80;2.97;;;4.10;99.90;;;;;;4164468;28;20111;-66
2021/04/14 02:53:45;;;;;;;4.63;2.30;;;4.10;99.90;;;;;;4167355;28;20041;-66
2021/04/14 02:55:45;;;;;;;3.58;2.55;;;4.10;99.90;;;;;;4166108;28;20034;-66
2021/04/14 02:57:46;;;;;;;6.00;2.53;;;4.00;99.90;;;;;;4166429;28;20037;-66
2021/04/14 02:59:47;;;;;;;5.32;2.72;;;4.00;99.90;;;;;;4145656;28;20117;-66
2021/04/14 03:01:48;;;;;;;4.72;2.75;;;4.00;99.90;;;;;;4164043;28;20056;-66
2021/04/14 03:03:48;;;;;;;4.78;2.85;;;4.00;99.90;;;;;;4160608;28;20156;-66
2021/04/14 03:05:49;;;;;;;3.97;2.83;;;4.10;99.90;;;;;;4164511;28;20626;-66
2021/04/14 03:07:50;;;;;;;5.32;3.03;;;4.00;99.90;;;;;;4165227;28;20040;-66
2021/04/14 03:09:51;;;;;;;7.57;3.03;;;4.10;99.90;;;;;;4163715;28;20032;-66
2021/04/14 03:11:52;;;;;;;4.80;3.00;;;4.10;99.90;;;;;;4166060;28;20379;-66
2021/04/14 03:13:52;;;;;;;5.90;2.75;;;4.00;99.90;;;;;;4167959;28;20033;-66
2021/04/14 03:15:53;;;;;;;6.38;3.08;;;4.00;99.90;;;;;;4180089;28;20044;-67
2021/04/14 03:17:54;;;;;;;6.13;2.83;;;4.00;99.90;;;;;;4162264;28;20076;-67
2021/04/14 03:19:54;;;;;;;4.22;2.47;;;4.00;99.90;;;;;;4166219;28;20022;-66
2021/04/14 03:21:55;;;;;;;4.88;3.08;;;4.00;99.90;;;;;;4166428;28;20163;-67
2021/04/14 03:23:55;;;;;;;4.18;2.83;;;4.00;99.90;;;;;;4161702;28;20022;-66
2021/04/14 03:25:56;;;;;;;6.45;2.65;;;4.00;99.90;;;;;;4178595;28;20094;-66
2021/04/14 03:27:58;;;;;;;6.25;3.25;;;4.00;99.90;;;;;;4162117;28;20513;-67
2021/04/14 03:29:58;;;;;;;5.20;2.85;;;4.00;99.90;;;;;;4177438;28;20049;-66
2021/04/14 03:31:59;;;;;;;4.32;3.17;;;4.00;99.90;;;;;;4166469;28;20051;-66
2021/04/14 03:33:59;;;;;;;6.78;3.30;;;4.00;99.90;;;;;;4163500;28;20065;-66
2021/04/14 03:36:00;;;;;;;4.85;2.92;;;4.10;99.90;;;;;;4166139;28;20065;-66
2021/04/14 03:38:02;;;;;;;6.05;2.90;;;4.00;99.90;;;;;;4164770;28;20030;-66
2021/04/14 03:40:05;;;;;;;9.57;3.60;;;4.00;99.90;;;;;;4165138;28;20500;-66
2021/04/14 03:42:06;;;;;;;6.13;3.55;;;4.00;99.90;;;;;;4162662;28;20106;-66
2021/04/14 03:44:07;;;;;;;6.05;3.45;;;4.00;99.90;;;;;;4162001;28;20134;-66
2021/04/14 03:46:08;;;;;;;5.50;3.28;;;3.90;99.90;;;;;;4157922;28;20038;-66
2021/04/14 03:48:09;;;;;;;6.60;3.13;;;3.80;99.90;;;;;;4161577;28;20129;-66
2021/04/14 03:50:13;;;;;;;5.40;2.90;;;3.80;99.90;;;;;;4162362;28;20065;-67
2021/04/14 03:52:14;;;;;;;6.45;2.63;;;3.80;99.90;;;;;;4159665;28;20096;-66
2021/04/14 03:54:15;;;;;;;4.70;2.58;;;3.80;99.90;;;;;;4167326;28;20050;-66
2021/04/14 03:56:20;;;;;;;6.38;2.90;;;3.80;99.90;;;;;;4164201;28;20041;-66
2021/04/14 03:58:22;;;;;;;4.30;2.58;;;3.80;99.90;;;;;;4161307;28;20038;-66
2021/04/14 04:00:25;;;;;;;3.83;2.50;;;3.80;99.90;;;;;;4164421;28;20041;-66
2021/04/14 04:02:26;;;;;;;6.43;3.35;;;3.80;99.90;;;;;;4159495;28;20866;-67
2021/04/14 04:04:26;;;;;;;5.47;2.78;;;3.80;99.90;;;;;;4163212;28;20057;-66
2021/04/14 04:06:27;;;;;;;5.03;3.20;;;3.80;99.90;;;;;;4159268;28;20029;-66
2021/04/14 04:08:28;;;;;;;4.05;2.50;;;3.80;99.90;;;;;;4161213;28;20053;-66
2021/04/14 04:10:28;;;;;;;6.18;3.30;;;3.80;99.90;;;;;;4158205;28;20041;-66
2021/04/14 04:12:29;;;;;;;4.07;2.58;;;3.80;99.90;;;;;;4162353;28;20033;-66
2021/04/14 04:14:33;;;;;;;5.57;3.13;;;3.80;99.90;;;;;;4161373;28;20037;-66
2021/04/14 04:16:33;;;;;;;5.60;2.95;;;3.80;99.90;;;;;;4160174;28;20689;-66
2021/04/14 04:18:36;;;;;;;5.88;3.00;;;3.80;99.90;;;;;;4162720;28;20037;-67
2021/04/14 04:20:38;;;;;;;3.67;2.70;;;3.80;99.90;;;;;;4164056;28;20068;-67
2021/04/14 04:22:39;;;;;;;6.32;3.28;;;3.80;99.90;;;;;;4161649;28;20045;-66
2021/04/14 04:24:39;;;;;;;3.95;3.00;;;3.80;99.90;;;;;;4160814;28;20045;-66
2021/04/14 04:26:40;;;;;;;5.07;2.30;;;3.80;99.90;;;;;;4161881;28;20389;-66
2021/04/14 04:28:41;;;;;;;3.97;2.47;;;3.80;99.90;;;;;;4158198;28;20037;-67
2021/04/14 04:30:41;;;;;;;4.32;2.80;;;3.80;99.90;;;;;;4159197;28;20134;-66
2021/04/14 04:32:42;;;;;;;6.43;2.85;;;3.80;99.90;;;;;;4176838;28;20076;-67
2021/04/14 04:34:42;;;;;;;4.32;3.15;;;3.80;99.90;;;;;;4157968;28;20042;-66
2021/04/14 04:36:43;;;;;;;5.97;3.42;;;3.80;99.90;;;;;;4159414;28;20127;-66
2021/04/14 04:38:43;;;;;;;6.78;3.58;;;3.80;99.90;;;;;;4158476;28;20048;-67
2021/04/14 04:40:44;;;;;;;4.20;3.10;;;3.80;99.90;;;;;;4161930;28;20482;-66
2021/04/14 04:42:46;;;;;;;4.75;3.00;;;3.80;99.90;;;;;;4158772;28;20038;-67
2021/04/14 04:44:47;;;;;;;5.43;2.63;;;3.80;99.90;;;;;;4157839;28;20068;-67
2021/04/14 04:46:47;;;;;;;4.50;2.60;;;3.80;99.90;;;;;;4157334;28;20381;-67
2021/04/14 04:48:48;;;;;;;4.03;2.53;;;3.80;99.90;;;;;;4157913;28;20481;-67
2021/04/14 04:50:49;;;;;;;4.18;2.97;;;3.80;99.90;;;;;;4160003;28;20197;-67
2021/04/14 04:52:49;;;;;;;7.20;3.75;;;3.80;99.90;;;;;;4159228;28;20039;-67
2021/04/14 04:54:50;;;;;;;4.32;3.45;;;3.80;99.90;;;;;;4156922;28;20087;-67
2021/04/14 04:56:51;;;;;;;4.40;2.92;;;3.80;99.90;;;;;;4159222;28;20061;-67
2021/04/14 04:58:51;;;;;;;5.97;3.35;;;3.90;99.90;;;;;;4187546;28;20032;-67
2021/04/14 05:00:52;;;;;;;4.57;3.03;;;3.90;99.90;;;;;;4174030;28;20041;-67
2021/04/14 05:02:54;;;;;;;5.00;3.38;;;3.90;99.90;;;;;;4157650;28;20041;-66
2021/04/14 05:04:54;;;;;;;4.95;3.92;;;3.90;99.90;;;;;;4157611;28;20044;-66
2021/04/14 05:06:55;;;;;;;6.45;3.45;;;3.90;99.90;;;;;;4184180;28;20037;-67
2021/04/14 05:08:56;;;;;;;6.40;3.10;;;3.90;99.90;;;;;;4157239;28;20040;-67
2021/04/14 05:10:57;;;;;;;9.10;3.33;;;3.80;99.90;;;;;;4158991;28;20080;-67
2021/04/14 05:12:58;;;;;;;5.15;3.08;;;3.80;99.90;;;;;;4159533;28;20107;-66
2021/04/14 05:14:59;;;;;;;5.35;3.28;;;3.80;99.90;;;;;;4157830;28;20033;-67
2021/04/14 05:16:59;;;;;;;7.20;3.85;;;3.80;99.90;;;;;;4158303;28;20039;-67
2021/04/14 05:19:00;;;;;;;7.95;4.63;;;3.90;99.90;;;;;;4158706;28;20061;-66
2021/04/14 05:21:03;;;;;;;8.77;4.60;;;3.80;99.90;;;;;;4157398;28;20034;-67
2021/04/14 05:23:05;;;;;;;6.25;4.07;;;3.80;99.90;;;;;;4149532;28;20055;-67
2021/04/14 05:25:07;;;;;;;5.35;4.10;;;3.80;99.90;;;;;;4156722;28;21167;-67
2021/04/14 05:27:08;;;;;;;5.10;3.17;;;3.90;99.90;;;;;;4156965;28;20033;-67
2021/04/14 05:29:09;;;;;;;4.53;3.20;;;3.90;99.90;;;;;;4157231;28;20041;-67
2021/04/14 05:31:10;;;;;;;3.72;2.45;;;3.90;99.90;;;;;;4165909;28;20071;-67
2021/04/14 05:33:12;;;;;;;5.53;3.60;;;3.90;99.90;;;;;;4159444;28;20107;-67
2021/04/14 05:35:13;;;;;;;7.63;3.63;;;3.90;99.90;;;;;;4156934;28;20053;-67
2021/04/14 05:37:14;;;;;;;6.30;3.65;;;3.90;99.90;;;;;;4158223;28;20037;-67
2021/04/14 05:39:14;;;;;;;8.70;4.15;;;4.00;99.90;;;;;;4157751;28;20037;-67
2021/04/14 05:41:15;;;;;;;5.38;3.65;;;4.00;99.90;;;;;;4158993;28;20022;-67
2021/04/14 05:43:20;;;;;;;9.07;4.72;;;4.00;99.90;;;;;;4158676;28;20057;-67
2021/04/14 05:45:25;;;;;;;7.93;4.25;;;4.00;99.90;;;;;;4156450;28;20041;-67
2021/04/14 05:47:25;;;;;;;7.30;4.10;;;4.10;99.90;;;;;;4156243;28;20029;-67
2021/04/14 05:49:26;;;;;;;9.57;4.13;;;4.10;99.90;;;;;;4157785;28;20037;-67
2021/04/14 05:51:31;;;;;;;7.53;4.25;;;4.10;99.90;;;;;;4156704;28;20573;-67
2021/04/14 05:53:34;;;;;;;8.23;4.47;;;4.10;99.90;;;;;;4157620;28;20178;-67
2021/04/14 05:55:35;;;;;;;;;;;4.20;99.90;;;;;;4154746;28;20387;-67
2021/04/14 05:57:35;;;;;;;7.05;4.25;;;4.20;99.90;;;;;;4156397;28;19939;-67
2021/04/14 05:59:36;;;;;;;9.55;4.60;;;4.20;99.90;;;;;;4159736;28;20704;-67
2021/04/14 06:01:37;;;;;;;7.30;4.63;;;4.10;99.90;;;;;;4162132;28;20116;-67
2021/04/14 06:03:38;;;;;;;10.48;4.80;;;4.20;99.90;;;;;;4153071;28;20057;-67
2021/04/14 06:05:38;;;;;;;8.30;4.55;;;4.20;99.90;;;;;;4153140;28;20091;-67
2021/04/14 06:07:39;;;;;;;9.65;5.25;;;4.10;99.90;;;;;;4156260;28;20036;-67
2021/04/14 06:09:41;;;;;;;8.10;5.25;;;4.10;99.90;;;;;;4159188;28;20038;-67
2021/04/14 06:11:42;;;;;;;8.63;5.20;;;4.10;99.90;;;;;;4156287;28;20120;-67
2021/04/14 06:13:44;;;;;;;9.65;5.72;;;4.10;99.90;;;;;;4158707;28;20033;-67
2021/04/14 06:15:45;;;;;;;8.65;4.97;;;4.00;99.90;;;;;;4157045;28;20156;-67
2021/04/14 06:17:46;;;;;;;7.55;4.72;;;4.00;99.90;;;;;;4155134;28;20492;-67
2021/04/14 06:19:46;;;;;;;12.65;4.90;;;4.00;99.90;;;;;;4156042;28;20513;-67
2021/04/14 06:21:47;;;;;;;7.85;5.28;;;4.00;99.90;;;;;;4158248;28;20695;-67
2021/04/14 06:23:48;;;;;;;10.57;5.18;;;4.10;99.90;;;;;;4158133;28;20045;-67
2021/04/14 06:28:23;;;;;;;7.88;5.43;;;4.10;99.90;;;;;;4146431;28;20061;-67
2021/04/14 06:30:24;;;;;;;10.80;5.83;;;4.20;99.90;;;;;;4162507;28;20061;-67
2021/04/14 06:32:25;;;;;;;8.98;6.30;;;4.20;99.90;;;;;;4157990;28;20525;-68
2021/04/14 06:34:27;;;;;;;9.15;6.65;;;4.20;99.90;;;;;;4159287;28;20770;-68
2021/04/14 06:36:28;;;;;;;11.75;6.60;;;4.30;99.90;;;;;;4155769;28;20044;-66
2021/04/14 06:38:32;;;;;;;14.57;7.43;;;4.30;99.90;;;;;;4156464;28;20056;-66
2021/04/14 06:42:52;;;;;;;14.02;7.70;;;4.40;99.90;;;;;;4156456;28;20426;-66
2021/04/14 06:44:59;;;;;;;10.80;6.97;;;4.50;99.90;;;;;;4145437;28;20756;-69
2021/04/14 06:47:01;;;;;;;12.88;7.65;;;4.60;99.90;;;;;;4157354;28;20025;-66
2021/04/14 06:49:25;;;;;;;12.65;7.15;;;4.60;99.90;;;;;;4158348;28;20061;-66
2021/04/14 06:51:50;;;;;;;12.15;7.32;;;4.60;99.90;;;;;;4154219;28;20069;-66
2021/04/14 06:54:06;;;;;;;14.55;7.72;;;4.60;99.90;;;;;;4148226;28;20378;-66
2021/04/14 06:56:15;;;;;;;12.20;7.05;;;4.60;99.90;;;;;;4156181;28;20041;-66
2021/04/14 06:58:20;;;;;;;10.15;6.60;;;4.60;99.90;;;;;;4183151;28;20032;-66
2021/04/14 07:00:36;;;;;;;10.73;6.65;;;4.70;99.90;;;;;;4157626;28;20175;-66
2021/04/14 07:03:01;;;;;;;11.80;6.88;;;4.70;99.90;;;;;;4156619;28;20048;-66
2021/04/14 07:05:08;;;;;;;12.00;6.80;;;4.80;99.90;;;;;;4156990;28;20036;-66
2021/04/14 07:07:15;;;;;;;15.30;8.13;;;4.80;99.90;;;;;;4160887;28;20033;-66
2021/04/14 07:09:40;;;;;;;13.05;8.15;;;4.90;99.90;;;;;;4156004;28;20636;-66
2021/04/14 07:11:41;;;;;;;14.98;8.60;;;4.90;99.90;;;;;;4156629;28;20040;-67
2021/04/14 07:13:45;;;;;;;16.10;8.98;;;4.90;99.90;;;;;;4158224;28;20030;-66
2021/04/14 07:15:50;;;;;;;16.77;9.80;;;5.00;99.90;;;;;;4152415;28;20420;-66
2021/04/14 07:18:15;;;;;;;17.10;8.77;;;5.00;99.90;;;;;;4151514;28;20041;-66
2021/04/14 07:20:23;;;;;;;16.33;8.48;;;5.00;99.90;;;;;;4152919;28;20056;-66
2021/04/14 07:22:32;;;;;;;15.32;8.93;;;5.00;99.90;;;;;;4158885;28;20044;-66
2021/04/14 07:24:42;;;;;;;12.55;8.13;;;5.10;99.90;;;;;;4160455;28;20490;-66
2021/04/14 07:27:12;;;;;;;14.32;8.60;;;5.10;99.90;;;;;;4157849;28;20120;-66
2021/04/14 07:29:42;;;;;;;12.15;7.63;;;5.20;99.90;;;;;;4156121;28;20038;-66
2021/04/14 07:32:08;;;;;;;10.32;6.85;;;5.30;99.90;;;;;;4157677;28;20033;-66
2021/04/14 07:34:41;;;;;;;10.60;7.22;;;5.40;99.90;;;;;;4158402;28;20072;-66
2021/04/14 07:37:10;;;;;;;10.10;6.60;;;5.40;99.90;;;;;;4158796;28;20038;-67
2021/04/14 07:39:15;;;;;;;11.88;6.72;;;5.50;99.90;;;;;;4182301;28;20086;-67
2021/04/14 07:41:36;;;;;;;10.93;6.97;;;5.60;99.90;;;;;;4162327;28;20045;-67
2021/04/14 07:43:37;;;;;;;11.60;7.13;;;5.60;99.90;;;;;;4158895;28;20657;-67
2021/04/14 07:45:38;;;;;;;12.20;7.82;;;5.70;99.90;;;;;;4161493;28;20045;-67
2021/04/14 07:47:44;;;;;;;13.50;7.40;;;5.70;99.90;;;;;;4162186;28;20065;-67
2021/04/14 07:49:44;;;;;;;10.40;6.45;;;5.70;99.90;;;;;;4158418;28;20046;-67
2021/04/14 07:51:45;;;;;;;10.80;7.13;;;5.80;99.90;;;;;;4156662;28;21605;-67
2021/04/14 07:54:07;;;;;;;10.55;6.55;;;5.80;99.90;;;;;;4155920;28;20784;-67
2021/04/14 07:56:23;;;;;;;12.18;7.20;;;5.90;99.90;;;;;;4158192;28;20133;-67
2021/04/14 07:58:25;;;;;;;13.20;7.70;;;5.90;99.90;;;;;;4157651;28;20521;-67
2021/04/14 08:00:46;;;;;;;12.48;7.47;;;6.00;99.90;;;;;;4158086;28;20034;-67
2021/04/14 08:02:46;;;;;;;12.75;7.30;;;5.90;99.90;;;;;;4167445;28;20067;-67
2021/04/14 08:04:47;;;;;;;12.57;7.82;;;6.00;99.90;;;;;;4160758;28;20032;-67
2021/04/14 08:06:48;;;;;;;13.88;8.35;;;6.00;99.90;;;;;;4154596;28;20044;-67
2021/04/14 08:08:50;;;;;;;10.70;7.07;;;6.00;99.90;;;;;;4156274;28;20053;-67
2021/04/14 08:11:01;;;;;;;13.27;7.40;;;6.10;99.90;;;;;;4159580;28;20076;-67
2021/04/14 08:13:05;;;;;;;11.98;7.28;;;6.10;99.90;;;;;;4156934;28;20041;-67
2021/04/14 08:15:08;;;;;;;13.07;7.82;;;6.10;99.90;;;;;;4172943;28;20037;-68
2021/04/14 08:17:21;;;;;;;14.15;7.20;;;6.20;99.90;;;;;;4161811;28;20082;-68
2021/04/14 08:19:27;;;;;;;11.38;6.85;;;6.20;99.90;;;;;;4154488;28;20129;-67
2021/04/14 08:21:41;;;;;;;13.45;7.28;;;6.30;99.90;;;;;;4179082;28;20184;-67
2021/04/14 08:24:03;;;;;;;11.15;7.40;;;6.40;99.90;;;;;;4184006;28;20040;-67
2021/04/14 08:26:19;;;;;;;11.18;6.88;;;6.50;99.90;;;;;;4157933;28;20025;-67
2021/04/14 08:28:41;;;;;;;12.48;7.60;;;6.60;99.90;;;;;;4158725;28;20084;-67
2021/04/14 08:30:42;;;;;;;15.15;8.25;;;6.70;99.90;;;;;;4158439;28;20056;-67
2021/04/14 08:32:49;;;;;;;12.15;7.78;;;6.70;99.90;;;;;;4154138;28;20156;-68
2021/04/14 08:34:59;;;;;;;14.02;8.38;;;6.80;99.90;;;;;;4160398;28;20087;-68
2021/04/14 08:37:20;;;;;;;13.75;7.95;;;6.90;99.90;;;;;;4169988;28;20064;-67
2021/04/14 08:39:49;;;;;;;11.43;7.22;;;6.90;99.90;;;;;;4163133;28;20045;-68
2021/04/14 08:41:50;;;;;;;12.95;7.45;;;7.00;99.90;;;;;;4157922;28;20129;-68
2021/04/14 08:43:53;;;;;;;13.02;7.07;;;7.10;99.90;;;;;;4160494;28;21237;-67
2021/04/14 08:45:54;;;;;;;14.45;8.15;;;7.20;99.90;;;;;;4161182;28;20037;-68
2021/04/14 08:48:27;;;;;;;11.45;7.13;;;7.20;99.90;;;;;;4157673;28;20413;-67
2021/04/14 08:50:32;;;;;;;13.55;8.00;;;7.30;99.90;;;;;;4171344;28;20662;-68
2021/04/14 08:52:34;;;;;;;14.68;8.10;;;7.40;99.90;;;;;;4158485;28;20076;-67
2021/04/14 08:54:36;;;;;;;;;;;7.40;99.90;;;;;;4175721;28;20493;-67
2021/04/14 08:56:36;;;;;;;15.27;7.40;;;7.50;99.90;;;;;;4156932;28;19940;-67
2021/04/14 08:58:37;;;;;;;10.00;6.72;;;7.60;99.90;;;;;;4157166;28;20387;-67
2021/04/14 09:00:37;;;;;;;9.15;6.18;;;7.70;99.90;;;;;;4158642;28;20029;-67
2021/04/14 09:02:42;;;;;;;13.60;7.93;;;7.70;99.90;;;;;;4158178;28;20538;-67
2021/04/14 09:04:46;;;;;;;11.80;7.00;;;7.80;99.90;;;;;;4157517;28;20037;-67
2021/04/14 09:06:48;;;;;;;13.18;7.63;;;7.90;99.90;;;;;;4190592;28;20542;-67
2021/04/14 09:08:52;;;;;;;11.27;7.80;;;7.90;99.90;;;;;;4160489;28;20127;-67
2021/04/14 09:11:02;;;;;;;15.70;9.15;;;7.90;99.90;;;;;;4163480;28;20037;-67
2021/04/14 09:13:04;;;;;;;16.20;8.88;;;7.90;99.90;;;;;;4159664;28;20478;-67
2021/04/14 09:15:09;;;;;;;;;;;7.80;99.90;;;;;;4155774;28;20053;-67
2021/04/14 09:17:12;;;;;;;12.32;8.27;;;7.80;99.90;;;;;;4158641;28;20524;-67
2021/04/14 09:19:23;;;;;;;11.80;7.55;;;7.80;99.90;;;;;;4151809;28;20506;-67
2021/04/14 09:21:25;;;;;;;10.98;7.25;;;7.90;99.90;;;;;;4156329;28;20176;-67
2021/04/14 09:23:29;;;;;;;13.00;8.20;;;7.90;99.90;;;;;;4186608;28;20051;-67
2021/04/14 09:25:43;;;;;;;13.98;8.55;;;7.90;99.90;;;;;;4169917;28;20041;-67
2021/04/14 09:27:51;;;;;;;12.27;7.13;;;8.00;99.90;;;;;;4158383;28;20037;-67
2021/04/14 09:30:16;;;;;;;12.40;7.13;;;8.00;99.90;;;;;;4154401;28;20045;-67
2021/04/14 09:32:34;;;;;;;14.18;8.63;;;8.00;99.90;;;;;;4157308;28;20038;-67
2021/04/14 09:34:48;;;;;;;16.05;8.20;;;7.90;99.90;;;;;;4154400;28;20128;-67
2021/04/14 09:37:27;;;;;;;14.13;8.90;;;8.00;99.90;;;;;;4158276;28;20021;-67
2021/04/14 09:39:27;;;;;;;17.05;8.57;;;8.00;99.90;;;;;;4154780;28;20041;-67
2021/04/14 09:41:33;;;;;;;13.35;8.10;;;8.10;99.90;;;;;;4157348;28;20043;-67
2021/04/14 09:43:36;;;;;;;11.73;7.90;;;8.10;99.90;;;;;;4158479;28;20030;-67
2021/04/14 09:45:37;;;;;;;14.18;8.50;;;8.20;99.90;;;;;;4159301;28;20029;-67
2021/04/14 09:47:38;;;;;;;12.27;8.45;;;8.20;99.90;;;;;;4158763;28;20485;-67
2021/04/14 09:49:42;;;;;;;16.83;9.60;;;8.20;99.90;;;;;;4155954;28;20598;-67
2021/04/14 09:51:56;;;;;;;13.18;8.57;;;8.30;99.90;;;;;;4159003;28;20389;-67
2021/04/14 09:54:18;;;;;;;15.02;8.30;;;8.50;99.90;;;;;;4155882;28;20049;-67
2021/04/14 09:56:22;;;;;;;15.27;8.95;;;8.60;99.90;;;;;;4157143;28;20056;-67
2021/04/14 09:58:28;;;;;;;14.52;9.27;;;8.80;99.90;;;;;;4186705;28;20048;-67
2021/04/14 10:00:32;;;;;;;11.77;8.75;;;9.00;99.90;;;;;;4157210;28;20025;-67
2021/04/14 10:02:37;;;;;;;12.63;7.97;;;9.10;99.90;;;;;;4155674;28;20096;-67
2021/04/14 10:04:38;;;;;;;13.18;8.52;;;9.20;99.90;;;;;;4176387;28;20351;-67
2021/04/14 10:06:39;;;;;;;16.17;9.05;;;9.30;99.90;;;;;;4156665;28;20025;-67
2021/04/14 10:08:43;;;;;;;11.98;7.82;;;9.40;99.90;;;;;;4156462;28;20038;-67
2021/04/14 10:10:46;;;;;;;11.88;8.30;;;9.50;99.90;;;;;;4156868;28;20045;-67
2021/04/14 10:12:48;;;;;;;12.27;8.27;;;9.60;99.90;;;;;;4156582;28;20112;-67
2021/04/14 10:14:54;;;;;;;11.43;7.90;;;9.70;99.90;;;;;;4154289;28;20064;-67
2021/04/14 10:17:06;;;;;;;13.27;7.78;;;9.80;99.90;;;;;;4155478;28;20045;-67
2021/04/14 10:19:10;;;;;;;11.97;8.23;;;9.90;99.90;;;;;;4157014;28;20504;-67
2021/04/14 10:21:18;;;;;;;11.98;7.97;;;10.00;99.90;;;;;;4155247;28;20034;-67
2021/04/14 10:23:26;;;;;;;15.30;8.75;;;10.10;99.90;;;;;;4188181;28;20032;-67
2021/04/14 10:25:36;;;;;;;11.82;7.50;;;10.10;99.90;;;;;;4170044;28;20044;-67
2021/04/14 10:27:37;;;;;;;12.82;7.70;;;10.10;99.90;;;;;;4155467;28;20474;-67
2021/04/14 10:29:43;;;;;;;11.07;7.25;;;10.10;99.90;;;;;;4173434;28;20033;-67
2021/04/14 10:31:44;;;;;;;9.90;7.05;;;10.00;99.90;;;;;;4186955;28;20055;-67
2021/04/14 10:33:45;;;;;;;11.13;7.75;;;10.00;99.90;;;;;;4173056;28;20481;-67
2021/04/14 10:35:48;;;;;;;11.25;7.22;;;10.10;99.90;;;;;;4154103;28;20152;-67
2021/04/14 10:37:52;;;;;;;9.80;7.07;;;10.10;99.90;;;;;;4161868;28;20036;-67
2021/04/14 10:39:53;;;;;;;11.38;7.55;;;10.10;99.90;;;;;;4159966;28;20033;-67
2021/04/14 10:41:54;;;;;;;9.60;6.72;;;10.20;99.90;;;;;;4158211;28;20049;-67
2021/04/14 10:43:55;;;;;;;12.05;7.13;;;10.20;99.90;;;;;;4158625;28;20063;-67
2021/04/14 10:45:58;;;;;;;11.60;7.68;;;10.30;99.90;;;;;;4157153;28;21218;-67
2021/04/14 10:48:04;;;;;;;15.38;7.85;;;10.40;99.90;;;;;;4159367;28;20482;-67
2021/04/14 10:50:07;;;;;;;11.65;8.00;;;10.40;99.90;;;;;;4161556;28;20485;-67
2021/04/14 10:52:17;;;;;;;15.52;8.02;;;10.50;99.90;;;;;;4159552;28;20090;-67
2021/04/14 10:54:27;;;;;;;16.02;8.77;;;10.30;99.90;;;;;;4155245;28;20056;-67
2021/04/14 10:56:30;;;;;;;14.05;8.15;;;10.10;99.90;;;;;;4158790;28;20090;-69